sensor_id;sensor_type;location;lat;lon;timestamp;temperature;humidity
12436;DHT22;6282;51.440;6.938;2023-11-19T00:00:25;10.90;99.90
12436;DHT22;6282;51.440;6.938;2023-11-19T00:02:52;10.90;99.90
12436;DHT22;6282;51.440;6.938;2023-11-19T00:05:18;11.00;99.90
12436;DHT22;6282;51.440;6.938;2023-11-19T00:07:45;11.00;99.90
12436;DHT22;6282;51.440;6.938;2023-11-19T00:10:14;11.10;99.90
12436;DHT22;6282;51.440;6.938;2023-11-19T00:12:45;11.10;99.90
12436;DHT22;6282;51.440;6.938;2023-11-19T00:15:13;11.20;99.90
12436;DHT22;6282;51.440;6.938;2023-11-19T00:17:40;11.20;99.90
12436;DHT22;6282;51.440;6.938;2023-11-19T00:20:10;11.20;99.90
12436;DHT22;6282;51.440;6.938;2023-11-19T00:22:37;11.30;99.90
12436;DHT22;6282;51.440;6.938;2023-11-19T00:25:05;11.30;99.90
12436;DHT22;6282;51.440;6.938;2023-11-19T00:27:33;11.30;99.90
12436;DHT22;6282;51.440;6.938;2023-11-19T00:30:01;11.30;99.90
12436;DHT22;6282;51.440;6.938;2023-11-19T00:32:30;11.30;99.90
12436;DHT22;6282;51.440;6.938;2023-11-19T00:34:57;11.40;99.90
12436;DHT22;6282;51.440;6.938;2023-11-19T00:37:24;11.40;99.90
12436;DHT22;6282;51.440;6.938;2023-11-19T00:39:51;11.40;99.90
12436;DHT22;6282;51.440;6.938;2023-11-19T00:42:18;11.50;99.90
12436;DHT22;6282;51.440;6.938;2023-11-19T00:44:46;11.50;99.90
12436;DHT22;6282;51.440;6.938;2023-11-19T00:47:12;11.60;99.90
12436;DHT22;6282;51.440;6.938;2023-11-19T00:49:39;11.70;99.90
12436;DHT22;6282;51.440;6.938;2023-11-19T00:52:06;11.60;99.90
12436;DHT22;6282;51.440;6.938;2023-11-19T00:54:33;11.70;99.90
12436;DHT22;6282;51.440;6.938;2023-11-19T00:56:59;11.70;99.90
12436;DHT22;6282;51.440;6.938;2023-11-19T00:59:27;11.70;99.90
12436;DHT22;6282;51.440;6.938;2023-11-19T01:01:55;11.70;99.90
12436;DHT22;6282;51.440;6.938;2023-11-19T01:04:22;11.80;99.90
12436;DHT22;6282;51.440;6.938;2023-11-19T01:06:49;11.90;99.90
12436;DHT22;6282;51.440;6.938;2023-11-19T01:09:16;11.90;99.90
12436;DHT22;6282;51.440;6.938;2023-11-19T01:11:43;12.00;99.90
12436;DHT22;6282;51.440;6.938;2023-11-19T01:14:10;11.90;99.90
12436;DHT22;6282;51.440;6.938;2023-11-19T01:16:37;12.00;99.90
12436;DHT22;6282;51.440;6.938;2023-11-19T01:19:05;12.00;99.90
12436;DHT22;6282;51.440;6.938;2023-11-19T01:21:32;12.00;99.90
12436;DHT22;6282;51.440;6.938;2023-11-19T01:23:58;12.00;99.90
12436;DHT22;6282;51.440;6.938;2023-11-19T01:26:26;12.00;99.90
12436;DHT22;6282;51.440;6.938;2023-11-19T01:28:53;12.00;99.90
12436;DHT22;6282;51.440;6.938;2023-11-19T01:31:19;12.10;99.90
12436;DHT22;6282;51.440;6.938;2023-11-19T01:33:47;12.10;99.90
12436;DHT22;6282;51.440;6.938;2023-11-19T01:36:15;12.10;99.90
12436;DHT22;6282;51.440;6.938;2023-11-19T01:38:42;12.10;99.90
12436;DHT22;6282;51.440;6.938;2023-11-19T01:41:09;12.10;99.90
12436;DHT22;6282;51.440;6.938;2023-11-19T01:43:37;12.20;99.90
12436;DHT22;6282;51.440;6.938;2023-11-19T01:46:05;12.30;99.90
12436;DHT22;6282;51.440;6.938;2023-11-19T01:48:34;12.30;99.90
12436;DHT22;6282;51.440;6.938;2023-11-19T01:51:02;12.30;99.90
12436;DHT22;6282;51.440;6.938;2023-11-19T01:53:31;12.30;99.90
12436;DHT22;6282;51.440;6.938;2023-11-19T01:55:59;12.40;99.90
12436;DHT22;6282;51.440;6.938;2023-11-19T01:58:26;12.40;99.90
12436;DHT22;6282;51.440;6.938;2023-11-19T02:00:56;12.40;99.90
12436;DHT22;6282;51.440;6.938;2023-11-19T02:03:24;12.40;99.90
12436;DHT22;6282;51.440;6.938;2023-11-19T02:05:51;12.40;99.90
12436;DHT22;6282;51.440;6.938;2023-11-19T02:08:18;12.40;99.90
12436;DHT22;6282;51.440;6.938;2023-11-19T02:10:47;12.40;99.90
12436;DHT22;6282;51.440;6.938;2023-11-19T02:13:14;12.40;99.90
12436;DHT22;6282;51.440;6.938;2023-11-19T02:15:41;12.40;99.90
12436;DHT22;6282;51.440;6.938;2023-11-19T02:18:27;12.40;99.90
12436;DHT22;6282;51.440;6.938;2023-11-19T02:20:54;12.40;99.90
12436;DHT22;6282;51.440;6.938;2023-11-19T02:23:22;12.50;99.90
12436;DHT22;6282;51.440;6.938;2023-11-19T02:26:02;12.50;99.90
12436;DHT22;6282;51.440;6.938;2023-11-19T02:28:32;12.50;99.90
12436;DHT22;6282;51.440;6.938;2023-11-19T02:31:00;12.50;99.90
12436;DHT22;6282;51.440;6.938;2023-11-19T02:33:26;12.50;99.90
12436;DHT22;6282;51.440;6.938;2023-11-19T02:35:53;12.50;99.90
12436;DHT22;6282;51.440;6.938;2023-11-19T02:38:20;12.50;99.90
12436;DHT22;6282;51.440;6.938;2023-11-19T02:40:48;12.50;99.90
12436;DHT22;6282;51.440;6.938;2023-11-19T02:43:15;12.50;99.90
12436;DHT22;6282;51.440;6.938;2023-11-19T02:45:44;12.50;99.90
12436;DHT22;6282;51.440;6.938;2023-11-19T02:48:11;12.50;99.90
12436;DHT22;6282;51.440;6.938;2023-11-19T02:50:39;12.60;99.90
12436;DHT22;6282;51.440;6.938;2023-11-19T02:53:07;12.60;99.90
12436;DHT22;6282;51.440;6.938;2023-11-19T02:55:34;12.60;99.90
12436;DHT22;6282;51.440;6.938;2023-11-19T02:58:03;12.60;99.90
12436;DHT22;6282;51.440;6.938;2023-11-19T03:00:35;12.70;99.90
12436;DHT22;6282;51.440;6.938;2023-11-19T03:03:08;12.60;99.90
12436;DHT22;6282;51.440;6.938;2023-11-19T03:05:45;12.60;99.90
12436;DHT22;6282;51.440;6.938;2023-11-19T03:08:14;12.60;99.90
12436;DHT22;6282;51.440;6.938;2023-11-19T03:10:41;12.60;99.90
12436;DHT22;6282;51.440;6.938;2023-11-19T03:13:11;12.60;99.90
12436;DHT22;6282;51.440;6.938;2023-11-19T03:15:39;12.70;99.90
12436;DHT22;6282;51.440;6.938;2023-11-19T03:18:06;12.60;99.90
12436;DHT22;6282;51.440;6.938;2023-11-19T03:20:34;12.60;99.90
12436;DHT22;6282;51.440;6.938;2023-11-19T03:23:01;12.70;99.90
12436;DHT22;6282;51.440;6.938;2023-11-19T03:25:28;12.70;99.90
12436;DHT22;6282;51.440;6.938;2023-11-19T03:27:58;12.70;99.90
12436;DHT22;6282;51.440;6.938;2023-11-19T03:30:26;12.70;99.90
12436;DHT22;6282;51.440;6.938;2023-11-19T03:32:53;12.60;99.90
12436;DHT22;6282;51.440;6.938;2023-11-19T03:35:21;12.60;99.90
12436;DHT22;6282;51.440;6.938;2023-11-19T03:37:49;12.60;99.90
12436;DHT22;6282;51.440;6.938;2023-11-19T03:40:16;12.50;99.90
12436;DHT22;6282;51.440;6.938;2023-11-19T03:42:44;12.50;99.90
12436;DHT22;6282;51.440;6.938;2023-11-19T03:45:11;12.50;99.90
12436;DHT22;6282;51.440;6.938;2023-11-19T03:47:38;12.50;99.90
12436;DHT22;6282;51.440;6.938;2023-11-19T03:50:06;12.50;99.90
12436;DHT22;6282;51.440;6.938;2023-11-19T03:52:34;12.40;99.90
12436;DHT22;6282;51.440;6.938;2023-11-19T03:55:02;12.40;99.90
12436;DHT22;6282;51.440;6.938;2023-11-19T03:57:30;12.40;99.90
12436;DHT22;6282;51.440;6.938;2023-11-19T03:59:57;12.30;99.90
12436;DHT22;6282;51.440;6.938;2023-11-19T04:02:25;12.30;99.90
12436;DHT22;6282;51.440;6.938;2023-11-19T04:04:53;12.10;99.90
12436;DHT22;6282;51.440;6.938;2023-11-19T04:07:20;12.20;99.90
12436;DHT22;6282;51.440;6.938;2023-11-19T04:09:47;12.20;99.90
12436;DHT22;6282;51.440;6.938;2023-11-19T04:12:16;12.20;99.90
12436;DHT22;6282;51.440;6.938;2023-11-19T04:14:43;12.20;99.90
12436;DHT22;6282;51.440;6.938;2023-11-19T04:17:09;12.10;99.90
12436;DHT22;6282;51.440;6.938;2023-11-19T04:19:36;12.10;99.90
12436;DHT22;6282;51.440;6.938;2023-11-19T04:22:07;12.10;99.90
12436;DHT22;6282;51.440;6.938;2023-11-19T04:24:33;12.10;99.90
12436;DHT22;6282;51.440;6.938;2023-11-19T04:27:15;12.10;99.90
12436;DHT22;6282;51.440;6.938;2023-11-19T04:29:42;12.00;99.90
12436;DHT22;6282;51.440;6.938;2023-11-19T04:32:09;12.00;99.90
12436;DHT22;6282;51.440;6.938;2023-11-19T04:34:36;12.10;99.90
12436;DHT22;6282;51.440;6.938;2023-11-19T04:37:03;12.10;99.90
12436;DHT22;6282;51.440;6.938;2023-11-19T04:39:30;12.10;99.90
12436;DHT22;6282;51.440;6.938;2023-11-19T04:41:57;12.10;99.90
12436;DHT22;6282;51.440;6.938;2023-11-19T04:44:26;12.10;99.90
12436;DHT22;6282;51.440;6.938;2023-11-19T04:46:53;12.10;99.90
12436;DHT22;6282;51.440;6.938;2023-11-19T04:49:19;12.10;99.90
12436;DHT22;6282;51.440;6.938;2023-11-19T04:51:46;12.20;99.90
12436;DHT22;6282;51.440;6.938;2023-11-19T04:54:13;12.20;99.90
12436;DHT22;6282;51.440;6.938;2023-11-19T04:56:40;12.20;99.90
12436;DHT22;6282;51.440;6.938;2023-11-19T04:59:07;12.10;99.90
12436;DHT22;6282;51.440;6.938;2023-11-19T05:01:35;12.10;99.90
12436;DHT22;6282;51.440;6.938;2023-11-19T05:04:03;12.10;99.90
12436;DHT22;6282;51.440;6.938;2023-11-19T05:06:30;12.10;99.90
12436;DHT22;6282;51.440;6.938;2023-11-19T05:08:58;12.10;99.90
12436;DHT22;6282;51.440;6.938;2023-11-19T05:11:26;12.20;99.90
12436;DHT22;6282;51.440;6.938;2023-11-19T05:13:53;12.20;99.90
12436;DHT22;6282;51.440;6.938;2023-11-19T05:16:20;12.20;99.90
12436;DHT22;6282;51.440;6.938;2023-11-19T05:18:48;12.20;99.90
12436;DHT22;6282;51.440;6.938;2023-11-19T05:21:15;12.20;99.90
12436;DHT22;6282;51.440;6.938;2023-11-19T05:23:43;12.20;99.90
12436;DHT22;6282;51.440;6.938;2023-11-19T05:26:16;12.20;99.90
12436;DHT22;6282;51.440;6.938;2023-11-19T05:28:43;12.30;99.90
12436;DHT22;6282;51.440;6.938;2023-11-19T05:31:10;12.30;99.90
12436;DHT22;6282;51.440;6.938;2023-11-19T05:33:37;12.30;99.90
12436;DHT22;6282;51.440;6.938;2023-11-19T05:36:06;12.30;99.90
12436;DHT22;6282;51.440;6.938;2023-11-19T05:38:33;12.40;99.90
12436;DHT22;6282;51.440;6.938;2023-11-19T05:41:00;12.40;99.90
12436;DHT22;6282;51.440;6.938;2023-11-19T05:43:27;12.40;99.90
12436;DHT22;6282;51.440;6.938;2023-11-19T05:45:54;12.40;99.90
12436;DHT22;6282;51.440;6.938;2023-11-19T05:48:20;12.40;99.90
12436;DHT22;6282;51.440;6.938;2023-11-19T05:50:48;12.40;99.90
12436;DHT22;6282;51.440;6.938;2023-11-19T05:53:16;12.40;99.90
12436;DHT22;6282;51.440;6.938;2023-11-19T05:55:43;12.40;99.90
12436;DHT22;6282;51.440;6.938;2023-11-19T05:58:14;12.30;99.90
12436;DHT22;6282;51.440;6.938;2023-11-19T06:00:41;12.30;99.90
12436;DHT22;6282;51.440;6.938;2023-11-19T06:03:08;12.30;99.90
12436;DHT22;6282;51.440;6.938;2023-11-19T06:05:35;12.30;99.90
12436;DHT22;6282;51.440;6.938;2023-11-19T06:08:02;12.30;99.90
12436;DHT22;6282;51.440;6.938;2023-11-19T06:10:30;12.30;99.90
12436;DHT22;6282;51.440;6.938;2023-11-19T06:12:58;12.30;99.90
12436;DHT22;6282;51.440;6.938;2023-11-19T06:15:25;12.20;99.90
12436;DHT22;6282;51.440;6.938;2023-11-19T06:17:52;12.20;99.90
12436;DHT22;6282;51.440;6.938;2023-11-19T06:20:20;12.20;99.90
12436;DHT22;6282;51.440;6.938;2023-11-19T06:22:47;12.20;99.90
12436;DHT22;6282;51.440;6.938;2023-11-19T06:25:14;12.10;99.90
12436;DHT22;6282;51.440;6.938;2023-11-19T06:27:42;12.20;99.90
12436;DHT22;6282;51.440;6.938;2023-11-19T06:30:10;12.30;99.90
12436;DHT22;6282;51.440;6.938;2023-11-19T06:32:37;12.20;99.90
12436;DHT22;6282;51.440;6.938;2023-11-19T06:35:05;12.30;99.90
12436;DHT22;6282;51.440;6.938;2023-11-19T06:37:31;12.20;99.90
12436;DHT22;6282;51.440;6.938;2023-11-19T06:39:58;12.10;99.90
12436;DHT22;6282;51.440;6.938;2023-11-19T06:42:25;12.10;99.90
12436;DHT22;6282;51.440;6.938;2023-11-19T06:44:53;12.10;99.90
12436;DHT22;6282;51.440;6.938;2023-11-19T06:47:22;12.10;99.90
12436;DHT22;6282;51.440;6.938;2023-11-19T06:49:49;12.10;99.90
12436;DHT22;6282;51.440;6.938;2023-11-19T06:52:16;12.00;99.90
12436;DHT22;6282;51.440;6.938;2023-11-19T06:54:43;12.00;99.90
12436;DHT22;6282;51.440;6.938;2023-11-19T06:57:11;12.00;99.90
12436;DHT22;6282;51.440;6.938;2023-11-19T06:59:37;12.00;99.90
12436;DHT22;6282;51.440;6.938;2023-11-19T07:02:06;12.00;99.90
12436;DHT22;6282;51.440;6.938;2023-11-19T07:04:33;12.00;99.90
12436;DHT22;6282;51.440;6.938;2023-11-19T07:07:00;12.00;99.90
12436;DHT22;6282;51.440;6.938;2023-11-19T07:09:27;11.90;99.90
12436;DHT22;6282;51.440;6.938;2023-11-19T07:11:53;12.00;99.90
12436;DHT22;6282;51.440;6.938;2023-11-19T07:14:21;11.90;99.90
12436;DHT22;6282;51.440;6.938;2023-11-19T07:16:49;12.00;99.90
12436;DHT22;6282;51.440;6.938;2023-11-19T07:19:18;11.90;99.90
12436;DHT22;6282;51.440;6.938;2023-11-19T07:21:44;11.90;99.90
12436;DHT22;6282;51.440;6.938;2023-11-19T07:24:11;11.90;99.90
12436;DHT22;6282;51.440;6.938;2023-11-19T07:26:42;11.90;99.90
12436;DHT22;6282;51.440;6.938;2023-11-19T07:29:09;11.90;99.90
12436;DHT22;6282;51.440;6.938;2023-11-19T07:31:36;11.90;99.90
12436;DHT22;6282;51.440;6.938;2023-11-19T07:34:03;11.80;99.90
12436;DHT22;6282;51.440;6.938;2023-11-19T07:36:32;11.80;99.90
12436;DHT22;6282;51.440;6.938;2023-11-19T07:38:59;11.80;99.90
12436;DHT22;6282;51.440;6.938;2023-11-19T07:41:26;11.80;99.90
12436;DHT22;6282;51.440;6.938;2023-11-19T07:43:53;11.80;99.90
12436;DHT22;6282;51.440;6.938;2023-11-19T07:46:20;11.80;99.90
12436;DHT22;6282;51.440;6.938;2023-11-19T07:48:47;11.80;99.90
12436;DHT22;6282;51.440;6.938;2023-11-19T07:51:14;11.80;99.90
12436;DHT22;6282;51.440;6.938;2023-11-19T07:53:43;11.90;99.90
12436;DHT22;6282;51.440;6.938;2023-11-19T07:56:10;11.90;99.90
12436;DHT22;6282;51.440;6.938;2023-11-19T07:58:37;11.90;99.90
12436;DHT22;6282;51.440;6.938;2023-11-19T08:01:04;11.90;99.90
12436;DHT22;6282;51.440;6.938;2023-11-19T08:03:31;11.90;99.90
12436;DHT22;6282;51.440;6.938;2023-11-19T08:05:59;11.90;99.90
12436;DHT22;6282;51.440;6.938;2023-11-19T08:08:26;11.90;99.90
12436;DHT22;6282;51.440;6.938;2023-11-19T08:10:56;11.90;99.90
12436;DHT22;6282;51.440;6.938;2023-11-19T08:13:23;12.00;99.90
12436;DHT22;6282;51.440;6.938;2023-11-19T08:15:50;11.90;99.90
12436;DHT22;6282;51.440;6.938;2023-11-19T08:18:18;11.80;99.90
12436;DHT22;6282;51.440;6.938;2023-11-19T08:20:45;11.90;99.90
12436;DHT22;6282;51.440;6.938;2023-11-19T08:23:15;12.00;99.90
12436;DHT22;6282;51.440;6.938;2023-11-19T08:25:42;12.00;99.90
12436;DHT22;6282;51.440;6.938;2023-11-19T08:28:11;12.00;99.90
12436;DHT22;6282;51.440;6.938;2023-11-19T08:30:38;12.10;99.90
12436;DHT22;6282;51.440;6.938;2023-11-19T08:33:05;12.20;99.90
12436;DHT22;6282;51.440;6.938;2023-11-19T08:35:32;12.10;99.90
12436;DHT22;6282;51.440;6.938;2023-11-19T08:37:59;12.20;99.90
12436;DHT22;6282;51.440;6.938;2023-11-19T08:40:27;12.20;99.90
12436;DHT22;6282;51.440;6.938;2023-11-19T08:42:55;12.20;99.90
12436;DHT22;6282;51.440;6.938;2023-11-19T08:45:23;12.40;99.90
12436;DHT22;6282;51.440;6.938;2023-11-19T08:47:50;12.50;99.90
12436;DHT22;6282;51.440;6.938;2023-11-19T08:50:16;12.60;99.90
12436;DHT22;6282;51.440;6.938;2023-11-19T08:52:43;12.50;99.90
12436;DHT22;6282;51.440;6.938;2023-11-19T08:55:10;12.50;99.90
12436;DHT22;6282;51.440;6.938;2023-11-19T08:57:39;12.60;99.90
12436;DHT22;6282;51.440;6.938;2023-11-19T09:00:06;12.50;99.90
12436;DHT22;6282;51.440;6.938;2023-11-19T09:02:35;12.50;99.90
12436;DHT22;6282;51.440;6.938;2023-11-19T09:05:02;12.40;99.90
12436;DHT22;6282;51.440;6.938;2023-11-19T09:07:29;12.40;99.90
12436;DHT22;6282;51.440;6.938;2023-11-19T09:09:56;12.40;99.90
12436;DHT22;6282;51.440;6.938;2023-11-19T09:12:22;12.40;99.90
12436;DHT22;6282;51.440;6.938;2023-11-19T09:14:49;12.70;99.90
12436;DHT22;6282;51.440;6.938;2023-11-19T09:17:16;12.50;99.90
12436;DHT22;6282;51.440;6.938;2023-11-19T09:19:45;12.70;99.90
12436;DHT22;6282;51.440;6.938;2023-11-19T09:22:12;12.60;99.90
12436;DHT22;6282;51.440;6.938;2023-11-19T09:24:38;12.60;99.90
12436;DHT22;6282;51.440;6.938;2023-11-19T09:27:05;12.60;99.90
12436;DHT22;6282;51.440;6.938;2023-11-19T09:29:32;12.70;99.90
12436;DHT22;6282;51.440;6.938;2023-11-19T09:31:59;12.70;99.90
12436;DHT22;6282;51.440;6.938;2023-11-19T09:34:26;12.80;99.90
12436;DHT22;6282;51.440;6.938;2023-11-19T09:36:54;12.60;99.90
12436;DHT22;6282;51.440;6.938;2023-11-19T09:39:21;12.70;99.90
12436;DHT22;6282;51.440;6.938;2023-11-19T09:41:48;12.70;99.90
12436;DHT22;6282;51.440;6.938;2023-11-19T09:44:15;12.80;99.90
12436;DHT22;6282;51.440;6.938;2023-11-19T09:46:44;12.80;99.90
12436;DHT22;6282;51.440;6.938;2023-11-19T09:49:11;12.80;99.90
12436;DHT22;6282;51.440;6.938;2023-11-19T09:51:39;12.90;99.90
12436;DHT22;6282;51.440;6.938;2023-11-19T09:54:08;12.90;99.90
12436;DHT22;6282;51.440;6.938;2023-11-19T09:56:36;12.90;99.90
12436;DHT22;6282;51.440;6.938;2023-11-19T09:59:05;13.10;99.90
12436;DHT22;6282;51.440;6.938;2023-11-19T10:01:32;13.00;99.90
12436;DHT22;6282;51.440;6.938;2023-11-19T10:04:00;13.10;99.90
12436;DHT22;6282;51.440;6.938;2023-11-19T10:06:27;13.10;99.90
12436;DHT22;6282;51.440;6.938;2023-11-19T10:08:55;13.10;99.90
12436;DHT22;6282;51.440;6.938;2023-11-19T10:11:23;13.10;99.90
12436;DHT22;6282;51.440;6.938;2023-11-19T10:13:51;13.10;99.90
12436;DHT22;6282;51.440;6.938;2023-11-19T10:16:18;13.20;99.90
12436;DHT22;6282;51.440;6.938;2023-11-19T10:18:45;13.20;99.90
12436;DHT22;6282;51.440;6.938;2023-11-19T10:21:13;13.20;99.90
12436;DHT22;6282;51.440;6.938;2023-11-19T10:23:49;13.10;99.90
12436;DHT22;6282;51.440;6.938;2023-11-19T10:26:17;13.10;99.90
12436;DHT22;6282;51.440;6.938;2023-11-19T10:28:47;13.10;99.90
12436;DHT22;6282;51.440;6.938;2023-11-19T10:31:14;12.90;99.90
12436;DHT22;6282;51.440;6.938;2023-11-19T10:33:41;13.20;99.90
12436;DHT22;6282;51.440;6.938;2023-11-19T10:36:10;13.30;99.90
12436;DHT22;6282;51.440;6.938;2023-11-19T10:38:38;13.40;99.90
12436;DHT22;6282;51.440;6.938;2023-11-19T10:41:06;13.40;99.90
12436;DHT22;6282;51.440;6.938;2023-11-19T10:43:43;13.40;99.90
12436;DHT22;6282;51.440;6.938;2023-11-19T10:46:13;13.40;99.90
12436;DHT22;6282;51.440;6.938;2023-11-19T10:48:46;13.30;99.90
12436;DHT22;6282;51.440;6.938;2023-11-19T10:51:13;13.40;99.90
12436;DHT22;6282;51.440;6.938;2023-11-19T10:53:47;13.40;99.90
12436;DHT22;6282;51.440;6.938;2023-11-19T10:56:16;13.50;99.90
12436;DHT22;6282;51.440;6.938;2023-11-19T10:58:45;13.50;99.90
12436;DHT22;6282;51.440;6.938;2023-11-19T11:01:18;13.50;99.90
12436;DHT22;6282;51.440;6.938;2023-11-19T11:03:46;13.70;99.90
12436;DHT22;6282;51.440;6.938;2023-11-19T11:06:15;13.50;99.90
12436;DHT22;6282;51.440;6.938;2023-11-19T11:08:42;13.80;99.90
12436;DHT22;6282;51.440;6.938;2023-11-19T11:11:12;13.60;99.90
12436;DHT22;6282;51.440;6.938;2023-11-19T11:13:42;13.60;99.90
12436;DHT22;6282;51.440;6.938;2023-11-19T11:16:09;13.70;99.90
12436;DHT22;6282;51.440;6.938;2023-11-19T11:18:37;13.70;99.90
12436;DHT22;6282;51.440;6.938;2023-11-19T11:21:07;13.70;99.90
12436;DHT22;6282;51.440;6.938;2023-11-19T11:23:59;13.70;99.90
12436;DHT22;6282;51.440;6.938;2023-11-19T11:26:38;13.70;99.90
12436;DHT22;6282;51.440;6.938;2023-11-19T11:29:14;13.80;99.90
12436;DHT22;6282;51.440;6.938;2023-11-19T11:31:51;13.70;99.90
12436;DHT22;6282;51.440;6.938;2023-11-19T11:37:32;13.70;99.90
12436;DHT22;6282;51.440;6.938;2023-11-19T11:40:02;13.60;99.90
12436;DHT22;6282;51.440;6.938;2023-11-19T11:42:36;13.70;99.90
12436;DHT22;6282;51.440;6.938;2023-11-19T11:45:04;13.70;99.90
12436;DHT22;6282;51.440;6.938;2023-11-19T11:48:11;13.80;99.90
12436;DHT22;6282;51.440;6.938;2023-11-19T11:50:52;13.90;99.90
12436;DHT22;6282;51.440;6.938;2023-11-19T11:53:20;14.10;99.90
12436;DHT22;6282;51.440;6.938;2023-11-19T11:55:58;13.90;99.90
12436;DHT22;6282;51.440;6.938;2023-11-19T11:58:31;13.90;99.90
12436;DHT22;6282;51.440;6.938;2023-11-19T12:00:59;13.80;99.90
12436;DHT22;6282;51.440;6.938;2023-11-19T12:03:28;13.80;99.90
12436;DHT22;6282;51.440;6.938;2023-11-19T12:05:57;13.80;99.90
12436;DHT22;6282;51.440;6.938;2023-11-19T12:08:29;14.10;99.90
12436;DHT22;6282;51.440;6.938;2023-11-19T12:10:57;14.30;99.90
12436;DHT22;6282;51.440;6.938;2023-11-19T12:13:54;14.00;99.90
12436;DHT22;6282;51.440;6.938;2023-11-19T12:16:28;14.00;99.90
12436;DHT22;6282;51.440;6.938;2023-11-19T12:18:56;14.20;99.90
12436;DHT22;6282;51.440;6.938;2023-11-19T12:21:31;14.00;99.90
12436;DHT22;6282;51.440;6.938;2023-11-19T12:23:59;14.10;99.90
12436;DHT22;6282;51.440;6.938;2023-11-19T12:26:37;14.00;99.90
12436;DHT22;6282;51.440;6.938;2023-11-19T12:29:04;14.00;99.90
12436;DHT22;6282;51.440;6.938;2023-11-19T12:31:32;13.90;99.90
12436;DHT22;6282;51.440;6.938;2023-11-19T12:34:05;14.00;99.90
12436;DHT22;6282;51.440;6.938;2023-11-19T12:36:35;14.10;99.90
12436;DHT22;6282;51.440;6.938;2023-11-19T12:39:02;13.90;99.90
12436;DHT22;6282;51.440;6.938;2023-11-19T12:44:54;14.00;99.90
12436;DHT22;6282;51.440;6.938;2023-11-19T12:47:22;14.10;99.90
12436;DHT22;6282;51.440;6.938;2023-11-19T12:49:55;14.00;99.90
12436;DHT22;6282;51.440;6.938;2023-11-19T12:52:24;13.60;99.90
12436;DHT22;6282;51.440;6.938;2023-11-19T12:54:51;13.40;99.90
12436;DHT22;6282;51.440;6.938;2023-11-19T12:57:18;13.30;99.90
12436;DHT22;6282;51.440;6.938;2023-11-19T12:59:54;13.20;99.90
12436;DHT22;6282;51.440;6.938;2023-11-19T13:02:22;13.10;99.90
12436;DHT22;6282;51.440;6.938;2023-11-19T13:04:49;13.20;99.90
12436;DHT22;6282;51.440;6.938;2023-11-19T13:10:50;13.00;99.90
12436;DHT22;6282;51.440;6.938;2023-11-19T13:13:17;13.00;99.90
12436;DHT22;6282;51.440;6.938;2023-11-19T13:15:44;13.00;99.90
12436;DHT22;6282;51.440;6.938;2023-11-19T13:18:12;13.00;99.90
12436;DHT22;6282;51.440;6.938;2023-11-19T13:20:39;13.20;99.90
12436;DHT22;6282;51.440;6.938;2023-11-19T13:23:06;13.10;99.90
12436;DHT22;6282;51.440;6.938;2023-11-19T13:25:34;13.10;99.90
12436;DHT22;6282;51.440;6.938;2023-11-19T13:28:02;13.20;99.90
12436;DHT22;6282;51.440;6.938;2023-11-19T13:30:39;13.20;99.90
12436;DHT22;6282;51.440;6.938;2023-11-19T13:33:07;13.20;99.90
12436;DHT22;6282;51.440;6.938;2023-11-19T13:35:42;13.20;99.90
12436;DHT22;6282;51.440;6.938;2023-11-19T13:38:09;13.20;99.90
12436;DHT22;6282;51.440;6.938;2023-11-19T13:40:37;13.30;99.90
12436;DHT22;6282;51.440;6.938;2023-11-19T13:43:04;13.10;99.90
12436;DHT22;6282;51.440;6.938;2023-11-19T13:45:33;12.90;99.90
12436;DHT22;6282;51.440;6.938;2023-11-19T13:48:07;13.00;99.90
12436;DHT22;6282;51.440;6.938;2023-11-19T13:50:35;13.10;99.90
12436;DHT22;6282;51.440;6.938;2023-11-19T13:53:27;12.80;99.90
12436;DHT22;6282;51.440;6.938;2023-11-19T13:55:56;12.90;99.90
12436;DHT22;6282;51.440;6.938;2023-11-19T13:58:28;13.00;99.90
12436;DHT22;6282;51.440;6.938;2023-11-19T14:01:23;13.00;99.90
12436;DHT22;6282;51.440;6.938;2023-11-19T14:04:07;13.00;99.90
12436;DHT22;6282;51.440;6.938;2023-11-19T14:06:34;13.10;99.90
12436;DHT22;6282;51.440;6.938;2023-11-19T14:09:22;13.00;99.90
12436;DHT22;6282;51.440;6.938;2023-11-19T14:11:51;12.90;99.90
12436;DHT22;6282;51.440;6.938;2023-11-19T14:17:45;12.90;99.90
12436;DHT22;6282;51.440;6.938;2023-11-19T14:23:31;12.90;99.90
12436;DHT22;6282;51.440;6.938;2023-11-19T14:25:58;12.70;99.90
12436;DHT22;6282;51.440;6.938;2023-11-19T14:28:30;13.40;99.90
12436;DHT22;6282;51.440;6.938;2023-11-19T14:30:58;12.60;99.90
12436;DHT22;6282;51.440;6.938;2023-11-19T14:33:29;12.70;99.90
12436;DHT22;6282;51.440;6.938;2023-11-19T14:35:56;12.50;99.90
12436;DHT22;6282;51.440;6.938;2023-11-19T14:38:24;12.60;99.90
12436;DHT22;6282;51.440;6.938;2023-11-19T14:40:56;12.60;99.90
12436;DHT22;6282;51.440;6.938;2023-11-19T14:43:40;12.60;99.90
12436;DHT22;6282;51.440;6.938;2023-11-19T14:46:07;12.90;99.90
12436;DHT22;6282;51.440;6.938;2023-11-19T14:48:34;12.50;99.90
12436;DHT22;6282;51.440;6.938;2023-11-19T14:51:01;12.50;99.90
12436;DHT22;6282;51.440;6.938;2023-11-19T14:53:29;12.50;99.90
12436;DHT22;6282;51.440;6.938;2023-11-19T14:55:55;12.50;99.90
12436;DHT22;6282;51.440;6.938;2023-11-19T14:58:22;12.60;99.90
12436;DHT22;6282;51.440;6.938;2023-11-19T15:00:52;12.80;99.90
12436;DHT22;6282;51.440;6.938;2023-11-19T15:03:19;12.40;99.90
12436;DHT22;6282;51.440;6.938;2023-11-19T15:05:46;12.30;99.90
12436;DHT22;6282;51.440;6.938;2023-11-19T15:08:13;12.30;99.90
12436;DHT22;6282;51.440;6.938;2023-11-19T15:10:41;12.20;99.90
12436;DHT22;6282;51.440;6.938;2023-11-19T15:13:08;12.20;99.90
12436;DHT22;6282;51.440;6.938;2023-11-19T15:15:35;12.10;99.90
12436;DHT22;6282;51.440;6.938;2023-11-19T15:18:05;12.10;99.90
12436;DHT22;6282;51.440;6.938;2023-11-19T15:20:32;12.00;99.90
12436;DHT22;6282;51.440;6.938;2023-11-19T15:22:59;11.90;99.90
12436;DHT22;6282;51.440;6.938;2023-11-19T15:25:25;12.00;99.90
12436;DHT22;6282;51.440;6.938;2023-11-19T15:27:52;12.00;99.90
12436;DHT22;6282;51.440;6.938;2023-11-19T15:30:19;12.00;99.90
12436;DHT22;6282;51.440;6.938;2023-11-19T15:32:46;11.90;99.90
12436;DHT22;6282;51.440;6.938;2023-11-19T15:35:14;11.80;99.90
12436;DHT22;6282;51.440;6.938;2023-11-19T15:37:41;11.80;99.90
12436;DHT22;6282;51.440;6.938;2023-11-19T15:40:10;11.70;99.90
12436;DHT22;6282;51.440;6.938;2023-11-19T15:42:38;11.60;99.90
12436;DHT22;6282;51.440;6.938;2023-11-19T15:45:06;11.60;99.90
12436;DHT22;6282;51.440;6.938;2023-11-19T15:47:33;11.60;99.90
12436;DHT22;6282;51.440;6.938;2023-11-19T15:50:00;11.60;99.90
12436;DHT22;6282;51.440;6.938;2023-11-19T15:52:30;11.50;99.90
12436;DHT22;6282;51.440;6.938;2023-11-19T15:54:57;11.60;99.90
12436;DHT22;6282;51.440;6.938;2023-11-19T15:57:24;11.60;99.90
12436;DHT22;6282;51.440;6.938;2023-11-19T15:59:51;11.60;99.90
12436;DHT22;6282;51.440;6.938;2023-11-19T16:02:18;11.60;99.90
12436;DHT22;6282;51.440;6.938;2023-11-19T16:04:45;11.70;99.90
12436;DHT22;6282;51.440;6.938;2023-11-19T16:07:13;11.70;99.90
12436;DHT22;6282;51.440;6.938;2023-11-19T16:09:41;11.70;99.90